Terminal Aerodrome Forecast
Issued by NWS Charleston, WV

Current Version | Previous Version | Text Only | Print | Product List | Glossary Off
Versions: 1 2 3 4 5 6 7 8 9 10 11 12 13 14 15 16 17 18 19 20 21 22 23 24 25

000
FTUS41 KRLX 230200 AAA
TAFEKN
TAF AMD
KEKN 230220Z 2302/2324 31010G19KT P6SM BKN040
     FM230500 29008G12KT P6SM BKN035
     FM230700 27008KT P6SM BKN025
     FM231500 29012G23KT P6SM BKN035=

USA.gov is the U.S. government's official web portal to all federal, state and local government web resources and services.